Time;durP1;ratioP1;P1;durP2;ratioP2;P2;SDS_P1;SDS_P2;PMS_P1;PMS_P2;Temp;Humidity;BMP_temperature;BMP_pressure;BME280_temperature;BME280_humidity;BME280_pressure;Samples;Min_cycle;Max_cycle;Signal;HPM_P1;HPM_P2
2024/01/09 00:03:50;;;;;;;31.03;12.53;;;;;-6.10;97116.00;;;;8268112;28;20230;-65
2024/01/09 00:07:55;;;;;;;27.33;10.23;;;;;-6.10;97105.00;;;;8265020;28;20301;-65
2024/01/09 00:11:58;;;;;;;21.70;10.67;;;;;-6.20;97104.00;;;;8266316;28;20313;-66
2024/01/09 00:16:01;;;;;;;14.53;7.37;;;;;-6.20;97104.00;;;;8265663;28;20268;-66
2024/01/09 00:20:04;;;;;;;25.07;10.53;;;;;-6.20;97099.00;;;;8265186;28;20301;-66
2024/01/09 00:24:09;;;;;;;16.33;7.53;;;;;-6.20;97111.00;;;;8267100;28;20233;-66
2024/01/09 00:28:12;;;;;;;23.00;9.23;;;;;-6.20;97113.00;;;;8268848;28;20304;-66
2024/01/09 00:32:15;;;;;;;20.63;8.23;;;;;-6.30;97108.00;;;;8266590;28;20206;-67
2024/01/09 00:36:19;;;;;;;26.83;12.03;;;;;-6.20;97112.00;;;;8268403;28;20945;-66
2024/01/09 00:40:23;;;;;;;24.80;9.23;;;;;-6.30;97117.00;;;;8268560;28;20233;-66
2024/01/09 00:44:26;;;;;;;18.97;7.57;;;;;-6.30;97100.00;;;;8268403;28;20226;-66
2024/01/09 00:48:29;;;;;;;26.13;9.70;;;;;-6.30;97090.00;;;;8265970;28;20240;-66
2024/01/09 00:52:33;;;;;;;19.40;8.63;;;;;-6.30;97088.00;;;;8263448;28;20237;-66
2024/01/09 00:56:37;;;;;;;21.33;9.17;;;;;-6.30;97079.00;;;;8268752;28;21094;-66
2024/01/09 01:00:40;;;;;;;20.57;8.93;;;;;-6.30;97093.00;;;;8260965;28;20289;-66
2024/01/09 01:04:43;;;;;;;26.07;9.60;;;;;-6.40;97092.00;;;;8247859;28;20226;-66
2024/01/09 01:08:48;;;;;;;21.67;8.57;;;;;-6.40;97080.00;;;;8254139;28;20670;-65
2024/01/09 01:12:52;;;;;;;19.60;8.03;;;;;-6.40;97081.00;;;;8253383;28;20220;-66
2024/01/09 01:16:56;;;;;;;25.27;11.23;;;;;-6.40;97107.00;;;;8253607;28;20200;-65
2024/01/09 01:20:59;;;;;;;17.83;8.20;;;;;-6.40;97102.00;;;;8251805;28;20210;-66
2024/01/09 01:25:02;;;;;;;17.20;7.37;;;;;-6.50;97090.00;;;;8256247;28;20230;-65
2024/01/09 01:29:07;;;;;;;23.27;8.73;;;;;-6.40;97099.00;;;;8253906;28;20213;-66
2024/01/09 01:33:10;;;;;;;15.70;7.57;;;;;-6.40;97099.00;;;;8251487;28;20265;-66
2024/01/09 01:37:14;;;;;;;18.00;6.73;;;;;-6.40;97093.00;;;;8255318;28;20218;-66
2024/01/09 01:41:17;;;;;;;22.57;9.27;;;;;-6.40;97098.00;;;;8251016;28;20210;-66
2024/01/09 01:45:23;;;;;;;25.10;9.30;;;;;-6.40;97096.00;;;;8254571;28;20279;-66
2024/01/09 01:49:27;;;;;;;17.47;7.17;;;;;-6.40;97086.00;;;;8250661;28;20209;-66
2024/01/09 01:53:32;;;;;;;16.97;8.57;;;;;-6.50;97087.00;;;;8253334;28;20209;-66
2024/01/09 01:57:36;;;;;;;34.20;9.20;;;;;-6.50;97079.00;;;;8253058;28;20663;-67
2024/01/09 02:01:40;;;;;;;19.80;8.33;;;;;-6.50;97080.00;;;;8241908;28;20205;-66
2024/01/09 02:05:44;;;;;;;27.03;8.10;;;;;-6.50;97077.00;;;;8253456;28;20770;-66
2024/01/09 02:09:48;;;;;;;31.80;10.90;;;;;-6.60;97085.00;;;;8254616;28;20240;-66
2024/01/09 02:13:51;;;;;;;27.57;9.77;;;;;-6.60;97093.00;;;;8251514;28;20231;-69
2024/01/09 02:17:56;;;;;;;22.77;10.50;;;;;-6.60;97100.00;;;;8253733;28;20734;-66
2024/01/09 02:21:59;;;;;;;23.27;8.97;;;;;-6.60;97099.00;;;;8253406;28;21265;-66
2024/01/09 02:26:03;;;;;;;25.33;10.00;;;;;-6.70;97092.00;;;;8254185;28;20237;-67
2024/01/09 02:30:12;;;;;;;30.03;13.07;;;;;-6.70;97093.00;;;;8251863;28;20247;-67
2024/01/09 02:34:16;;;;;;;30.73;12.07;;;;;-6.70;97093.00;;;;8252677;28;20224;-67
2024/01/09 02:38:19;;;;;;;32.27;12.20;;;;;-6.80;97090.00;;;;8250361;28;20961;-66
2024/01/09 02:42:22;;;;;;;27.50;11.37;;;;;-6.80;97087.00;;;;8250855;28;20216;-66
2024/01/09 02:46:27;;;;;;;29.73;12.37;;;;;-6.90;97084.00;;;;8251204;28;20317;-66
2024/01/09 02:50:30;;;;;;;27.70;10.83;;;;;-6.90;97095.00;;;;8251724;28;20217;-67
2024/01/09 02:54:33;;;;;;;27.00;10.67;;;;;-6.90;97090.00;;;;8252045;28;20229;-67
2024/01/09 02:58:36;;;;;;;26.73;11.17;;;;;-6.90;97090.00;;;;8251559;28;20311;-66
2024/01/09 03:02:41;;;;;;;26.43;8.23;;;;;-7.00;97101.00;;;;8279949;22;20244;-64
2024/01/09 03:06:44;;;;;;;25.53;10.63;;;;;-7.00;97095.00;;;;8258083;28;20228;-65
2024/01/09 03:10:47;;;;;;;31.03;11.90;;;;;-7.00;97091.00;;;;8261448;28;20215;-65
2024/01/09 03:14:50;;;;;;;25.00;11.60;;;;;-7.00;97099.00;;;;8264083;28;20329;-65
2024/01/09 03:18:55;;;;;;;24.40;11.40;;;;;-7.00;97101.00;;;;8264206;28;20323;-65
2024/01/09 03:22:58;;;;;;;32.03;11.43;;;;;-7.10;97094.00;;;;8266194;28;20209;-65
2024/01/09 03:27:02;;;;;;;38.87;14.97;;;;;-7.10;97112.00;;;;8266391;28;21270;-66
2024/01/09 03:31:05;;;;;;;38.77;15.07;;;;;-7.10;97104.00;;;;8263657;28;21818;-66
2024/01/09 03:35:09;;;;;;;40.27;12.73;;;;;-7.10;97102.00;;;;8266278;28;20833;-65
2024/01/09 03:39:14;;;;;;;31.70;11.27;;;;;-7.10;97109.00;;;;8266320;28;20205;-65
2024/01/09 03:43:17;;;;;;;29.87;12.13;;;;;-7.10;97102.00;;;;8267839;28;20209;-65
2024/01/09 03:47:20;;;;;;;16.07;7.80;;;;;-7.20;97107.00;;;;8264307;28;20269;-65
2024/01/09 03:51:25;;;;;;;29.23;9.47;;;;;-7.20;97104.00;;;;8266661;28;20217;-66
2024/01/09 03:55:28;;;;;;;24.63;10.00;;;;;-7.20;97115.00;;;;8264519;28;20294;-65
2024/01/09 03:59:31;;;;;;;35.60;11.50;;;;;-7.30;97105.00;;;;8264012;28;20304;-65
2024/01/09 04:03:34;;;;;;;24.93;8.03;;;;;-7.30;97104.00;;;;8259876;28;20244;-65
2024/01/09 04:07:39;;;;;;;19.90;7.00;;;;;-7.30;97099.00;;;;8265146;28;20726;-65
2024/01/09 04:11:44;;;;;;;30.30;11.43;;;;;-7.30;97104.00;;;;8266267;28;20216;-65
2024/01/09 04:15:47;;;;;;;25.83;10.33;;;;;-7.30;97109.00;;;;8266031;28;20208;-65
2024/01/09 04:19:50;;;;;;;24.63;7.57;;;;;-7.30;97105.00;;;;8267237;28;20949;-65
2024/01/09 04:23:54;;;;;;;22.47;8.57;;;;;-7.30;97101.00;;;;8267140;28;20333;-64
2024/01/09 04:27:58;;;;;;;33.00;13.37;;;;;-7.30;97113.00;;;;8266234;28;20567;-62
2024/01/09 04:32:01;;;;;;;26.83;9.73;;;;;-7.30;97109.00;;;;8259208;28;20320;-62
2024/01/09 04:36:04;;;;;;;24.90;9.00;;;;;-7.30;97103.00;;;;8266284;28;20730;-62
2024/01/09 04:40:10;;;;;;;34.37;13.40;;;;;-7.30;97094.00;;;;8265384;28;20216;-63
2024/01/09 04:44:13;;;;;;;30.07;10.63;;;;;-7.30;97111.00;;;;8264894;28;20307;-66
2024/01/09 04:48:16;;;;;;;16.30;7.77;;;;;-7.30;97099.00;;;;8260397;28;20258;-66
2024/01/09 04:52:20;;;;;;;26.43;11.90;;;;;-7.30;97108.00;;;;8259580;28;20367;-68
2024/01/09 04:56:24;;;;;;;18.33;9.73;;;;;-7.30;97111.00;;;;8259253;28;20203;-67
2024/01/09 05:00:27;;;;;;;18.40;8.33;;;;;-7.30;97115.00;;;;8264560;28;20205;-67
2024/01/09 05:04:31;;;;;;;28.10;9.37;;;;;-7.40;97105.00;;;;8260419;28;20232;-66
2024/01/09 05:08:34;;;;;;;27.77;11.67;;;;;-7.30;97097.00;;;;8264415;28;20237;-66
2024/01/09 05:12:38;;;;;;;36.67;13.47;;;;;-7.30;97113.00;;;;8263868;28;20308;-66
2024/01/09 05:16:42;;;;;;;19.27;6.83;;;;;-7.40;97101.00;;;;8266886;28;20745;-67
2024/01/09 05:20:45;;;;;;;24.43;9.93;;;;;-7.40;97097.00;;;;8267742;28;20296;-67
2024/01/09 05:24:48;;;;;;;32.83;12.27;;;;;-7.40;97091.00;;;;8266286;28;20215;-67
2024/01/09 05:28:52;;;;;;;32.63;11.33;;;;;-7.40;97093.00;;;;8262836;28;20319;-67
2024/01/09 05:32:55;;;;;;;29.00;10.17;;;;;-7.30;97094.00;;;;8263115;28;20245;-66
2024/01/09 05:36:59;;;;;;;29.93;10.80;;;;;-7.40;97095.00;;;;8263929;28;20295;-66
2024/01/09 05:41:03;;;;;;;33.90;13.43;;;;;-7.40;97085.00;;;;8261259;28;20216;-66
2024/01/09 05:45:08;;;;;;;58.63;10.73;;;;;-7.40;97111.00;;;;8261851;28;20270;-66
2024/01/09 05:49:11;;;;;;;35.00;12.67;;;;;-7.40;97101.00;;;;8262987;28;20323;-66
2024/01/09 05:53:14;;;;;;;38.43;15.07;;;;;-7.40;97108.00;;;;8264568;28;20200;-65
2024/01/09 05:57:17;;;;;;;36.27;12.90;;;;;-7.40;97098.00;;;;8261951;28;20213;-67
2024/01/09 06:01:22;;;;;;;24.97;8.43;;;;;-7.40;97116.00;;;;8264653;28;20201;-67
2024/01/09 06:05:25;;;;;;;28.90;10.57;;;;;-7.40;97117.00;;;;8264908;28;20242;-66
2024/01/09 06:09:28;;;;;;;27.07;9.70;;;;;-7.40;97109.00;;;;8264159;28;20258;-66
2024/01/09 06:13:31;;;;;;;26.70;8.60;;;;;-7.40;97111.00;;;;8264565;28;20248;-66
2024/01/09 06:17:36;;;;;;;20.77;9.83;;;;;-7.40;97119.00;;;;8264121;28;20277;-66
2024/01/09 06:21:39;;;;;;;31.67;11.97;;;;;-7.40;97119.00;;;;8264580;28;20202;-66
2024/01/09 06:25:42;;;;;;;37.00;12.63;;;;;-7.40;97125.00;;;;8264463;28;20236;-66
2024/01/09 06:29:45;;;;;;;23.57;9.13;;;;;-7.40;97123.00;;;;8264243;28;20611;-66
2024/01/09 06:33:50;;;;;;;31.63;12.03;;;;;-7.40;97130.00;;;;8264603;28;20205;-66
2024/01/09 06:37:53;;;;;;;34.83;12.37;;;;;-7.40;97126.00;;;;8263621;28;20241;-67
2024/01/09 06:41:57;;;;;;;29.47;11.83;;;;;-7.40;97137.00;;;;8264744;28;20222;-66
2024/01/09 06:46:00;;;;;;;25.60;9.63;;;;;-7.40;97140.00;;;;8264286;28;20284;-66
2024/01/09 06:50:05;;;;;;;31.87;9.93;;;;;-7.40;97134.00;;;;8268493;28;20201;-67
2024/01/09 06:54:23;;;;;;;23.37;8.03;;;;;-7.40;97134.00;;;;8269861;28;20688;-67
2024/01/09 06:58:26;;;;;;;27.30;9.70;;;;;-7.30;97144.00;;;;8270936;28;20206;-66
2024/01/09 07:02:29;;;;;;;37.03;12.80;;;;;-7.40;97143.00;;;;8267564;28;20264;-66
2024/01/09 07:06:33;;;;;;;28.13;10.23;;;;;-7.40;97146.00;;;;8270771;28;20371;-66
2024/01/09 07:10:37;;;;;;;26.57;9.20;;;;;-7.40;97149.00;;;;8271678;28;20236;-67
2024/01/09 07:14:40;;;;;;;24.60;10.27;;;;;-7.40;97149.00;;;;8271601;28;20246;-66
2024/01/09 07:18:43;;;;;;;16.30;7.50;;;;;-7.40;97144.00;;;;8269464;28;20364;-66
2024/01/09 07:22:48;;;;;;;34.97;10.47;;;;;-7.30;97149.00;;;;8271481;28;20201;-66
2024/01/09 07:26:57;;;;;;;33.77;10.57;;;;;-7.30;97151.00;;;;8268005;28;20280;-67
2024/01/09 07:31:01;;;;;;;22.77;8.67;;;;;-7.30;97151.00;;;;8271666;28;20665;-66
2024/01/09 07:35:05;;;;;;;41.40;13.77;;;;;-7.20;97160.00;;;;8271490;28;20214;-67
2024/01/09 07:39:09;;;;;;;21.77;9.53;;;;;-7.10;97159.00;;;;8271415;28;20210;-66
2024/01/09 07:43:13;;;;;;;19.33;8.80;;;;;-7.10;97153.00;;;;8270688;28;20914;-66
2024/01/09 07:47:16;;;;;;;29.93;11.87;;;;;-7.00;97153.00;;;;8269344;28;20321;-67
2024/01/09 07:51:19;;;;;;;28.50;12.00;;;;;-6.90;97151.00;;;;8271699;28;20201;-67
2024/01/09 07:55:24;;;;;;;26.00;10.93;;;;;-6.90;97153.00;;;;8267691;28;20655;-66
2024/01/09 07:59:28;;;;;;;30.10;12.67;;;;;-6.80;97158.00;;;;8269413;28;20299;-66
2024/01/09 08:03:31;;;;;;;22.67;8.50;;;;;-6.70;97159.00;;;;8268468;28;20233;-66
2024/01/09 08:07:34;;;;;;;12.80;6.73;;;;;-6.60;97158.00;;;;8261547;28;20241;-66
2024/01/09 08:11:39;;;;;;;26.47;9.90;;;;;-6.50;97161.00;;;;8268724;28;20209;-68
2024/01/09 08:15:42;;;;;;;23.50;8.93;;;;;-6.50;97170.00;;;;8269207;28;20211;-67
2024/01/09 08:19:46;;;;;;;24.17;9.77;;;;;-6.40;97167.00;;;;8266114;28;20331;-67
2024/01/09 08:23:49;;;;;;;22.40;9.27;;;;;-6.30;97162.00;;;;8266123;28;20256;-67
2024/01/09 08:27:54;;;;;;;14.60;7.60;;;;;-6.20;97154.00;;;;8264665;28;20702;-67
2024/01/09 08:31:57;;;;;;;21.10;9.80;;;;;-6.10;97156.00;;;;8268420;28;20204;-66
2024/01/09 08:36:00;;;;;;;17.67;6.53;;;;;-6.00;97161.00;;;;8265673;28;20204;-66
2024/01/09 08:40:06;;;;;;;16.90;7.60;;;;;-5.90;97153.00;;;;8267880;28;20254;-66
2024/01/09 08:44:10;;;;;;;11.63;5.70;;;;;-5.80;97163.00;;;;8268715;28;22116;-66
2024/01/09 08:48:13;;;;;;;26.93;8.10;;;;;-5.80;97163.00;;;;8266309;28;20313;-66
2024/01/09 08:52:21;;;;;;;25.83;10.73;;;;;-5.70;97164.00;;;;8266251;28;20243;-67
2024/01/09 08:56:24;;;;;;;14.10;6.50;;;;;-5.60;97164.00;;;;8268203;28;20933;-66
2024/01/09 09:00:29;;;;;;;23.87;9.63;;;;;-5.50;97159.00;;;;8263505;28;20217;-66
2024/01/09 09:04:32;;;;;;;30.13;11.63;;;;;-5.50;97154.00;;;;8263023;28;20238;-66
2024/01/09 09:08:36;;;;;;;27.23;10.37;;;;;-5.40;97167.00;;;;8264888;28;22653;-67
2024/01/09 09:12:40;;;;;;;21.77;9.10;;;;;-5.30;97169.00;;;;8263547;28;20201;-67
2024/01/09 09:16:45;;;;;;;21.23;8.27;;;;;-5.20;97176.00;;;;8266215;28;20293;-67
2024/01/09 09:20:48;;;;;;;22.03;8.83;;;;;-5.10;97183.00;;;;8264233;28;20652;-67
2024/01/09 09:24:51;;;;;;;27.73;9.87;;;;;-5.10;97186.00;;;;8267782;28;20206;-67
2024/01/09 09:28:55;;;;;;;20.03;8.50;;;;;-5.00;97187.00;;;;8262317;28;20590;-67
2024/01/09 09:33:15;;;;;;;21.90;8.40;;;;;-4.90;97190.00;;;;8265812;28;22418;-67
2024/01/09 09:37:18;;;;;;;25.47;8.03;;;;;-4.80;97192.00;;;;8263573;28;20213;-67
2024/01/09 09:41:22;;;;;;;17.57;6.67;;;;;-4.70;97183.00;;;;8266776;28;20296;-67
2024/01/09 09:45:26;;;;;;;27.53;10.77;;;;;-4.60;97184.00;;;;8265682;28;21626;-67
2024/01/09 09:49:31;;;;;;;19.27;8.37;;;;;-4.50;97195.00;;;;8264443;28;20320;-66
2024/01/09 09:53:36;;;;;;;22.73;9.30;;;;;-4.50;97198.00;;;;8260204;28;20210;-66
2024/01/09 09:57:40;;;;;;;30.30;10.03;;;;;-4.40;97194.00;;;;8264380;28;20305;-66
2024/01/09 10:01:45;;;;;;;19.60;8.43;;;;;-4.30;97186.00;;;;8263579;28;20230;-66
2024/01/09 10:05:52;;;;;;;17.53;8.00;;;;;-4.20;97188.00;;;;8249156;28;20207;-66
2024/01/09 10:09:59;;;;;;;19.60;8.53;;;;;-4.10;97182.00;;;;8265756;28;20237;-66
2024/01/09 10:14:02;;;;;;;31.83;10.40;;;;;-4.00;97187.00;;;;8264867;28;20293;-67
2024/01/09 10:18:05;;;;;;;27.90;11.63;;;;;-3.90;97175.00;;;;8259293;28;20202;-67
2024/01/09 10:22:10;;;;;;;30.73;10.73;;;;;-3.90;97182.00;;;;8265321;28;20208;-67
2024/01/09 10:26:13;;;;;;;23.37;8.77;;;;;-3.80;97180.00;;;;8272868;28;20197;-67
2024/01/09 10:30:17;;;;;;;20.10;7.60;;;;;-3.60;97183.00;;;;8270589;28;20248;-67
2024/01/09 10:34:20;;;;;;;18.07;7.07;;;;;-3.50;97175.00;;;;8270335;28;20213;-66
2024/01/09 10:38:27;;;;;;;22.57;9.03;;;;;-3.40;97171.00;;;;8270485;28;20209;-66
2024/01/09 10:42:31;;;;;;;21.40;9.60;;;;;-3.30;97171.00;;;;8270150;28;20221;-66
2024/01/09 10:46:35;;;;;;;20.10;7.93;;;;;-3.20;97156.00;;;;8267725;28;20208;-66
2024/01/09 10:50:39;;;;;;;20.77;7.90;;;;;-3.10;97161.00;;;;8270760;28;20805;-67
2024/01/09 10:54:44;;;;;;;14.23;6.20;;;;;-3.00;97157.00;;;;8271907;28;20214;-66
2024/01/09 10:58:49;;;;;;;14.87;6.83;;;;;-2.90;97145.00;;;;8269230;28;20313;-66
2024/01/09 11:02:52;;;;;;;22.50;9.27;;;;;-2.80;97157.00;;;;8266753;28;20229;-66
2024/01/09 11:06:56;;;;;;;19.47;7.70;;;;;-2.70;97154.00;;;;8267585;28;20998;-67
2024/01/09 11:11:03;;;;;;;18.87;6.80;;;;;-2.60;97166.00;;;;8269217;28;22310;-67
2024/01/09 11:15:10;;;;;;;19.47;7.30;;;;;-2.50;97146.00;;;;8269494;28;20324;-66
2024/01/09 11:19:15;;;;;;;19.80;9.60;;;;;-2.50;97133.00;;;;8271224;28;20202;-66
2024/01/09 11:24:00;;;;;;;18.93;8.40;;;;;-2.40;97143.00;;;;8269775;28;20206;-66
2024/01/09 11:28:06;;;;;;;13.67;6.80;;;;;-2.40;97137.00;;;;8269488;28;20233;-65
2024/01/09 11:32:10;;;;;;;17.13;8.17;;;;;-2.40;97135.00;;;;8268395;28;20202;-65
2024/01/09 11:36:14;;;;;;;16.53;6.63;;;;;-2.30;97146.00;;;;8267209;28;20201;-66
2024/01/09 11:40:19;;;;;;;17.77;7.77;;;;;-2.20;97130.00;;;;8266598;28;20206;-66
2024/01/09 11:44:23;;;;;;;18.00;7.17;;;;;-2.20;97118.00;;;;8266820;28;20216;-66
2024/01/09 11:48:26;;;;;;;16.67;6.87;;;;;-2.10;97115.00;;;;8266983;28;20233;-66
2024/01/09 11:52:30;;;;;;;20.87;8.00;;;;;-2.00;97092.00;;;;8267856;28;20219;-66
2024/01/09 11:56:33;;;;;;;18.53;8.00;;;;;-1.90;97101.00;;;;8268453;28;20306;-66
2024/01/09 12:00:38;;;;;;;13.63;7.07;;;;;-1.80;97089.00;;;;8264502;28;20210;-67
2024/01/09 12:04:41;;;;;;;17.27;7.53;;;;;-1.80;97095.00;;;;8266292;28;20269;-66
2024/01/09 12:08:44;;;;;;;12.63;5.57;;;;;-1.70;97095.00;;;;8238561;28;20283;-66
2024/01/09 12:12:47;;;;;;;14.03;6.63;;;;;-1.60;97090.00;;;;8262195;28;20837;-66
2024/01/09 12:16:53;;;;;;;16.03;6.27;;;;;-1.60;97078.00;;;;8265002;28;20329;-66
2024/01/09 12:20:56;;;;;;;13.67;5.97;;;;;-1.50;97081.00;;;;8268963;28;20853;-66
2024/01/09 12:25:00;;;;;;;17.30;7.57;;;;;-1.50;97072.00;;;;8265114;28;20713;-66
2024/01/09 12:29:04;;;;;;;15.00;5.43;;;;;-1.40;97079.00;;;;8263884;28;20650;-67
2024/01/09 12:33:08;;;;;;;13.83;6.07;;;;;-1.40;97062.00;;;;8266196;28;20747;-65
2024/01/09 12:37:12;;;;;;;16.83;6.53;;;;;-1.40;97069.00;;;;8264884;28;20202;-66
2024/01/09 12:41:21;;;;;;;17.90;6.93;;;;;-1.30;97067.00;;;;8266549;28;20207;-66
2024/01/09 12:45:25;;;;;;;10.23;5.10;;;;;-1.20;97061.00;;;;8268878;28;20205;-66
2024/01/09 12:49:30;;;;;;;13.13;6.87;;;;;-1.20;97047.00;;;;8266549;28;20223;-68
2024/01/09 12:53:34;;;;;;;15.63;5.70;;;;;-1.10;97064.00;;;;8265134;28;20669;-66
2024/01/09 12:57:37;;;;;;;17.30;7.40;;;;;-1.10;97049.00;;;;8267019;28;20210;-66
2024/01/09 13:01:41;;;;;;;20.60;6.30;;;;;-1.10;97026.00;;;;8265116;28;20326;-66
2024/01/09 13:05:45;;;;;;;15.37;6.57;;;;;-1.10;97031.00;;;;8265587;28;20290;-66
2024/01/09 13:09:48;;;;;;;15.43;5.90;;;;;-1.00;97031.00;;;;8252960;28;20234;-66
2024/01/09 13:13:53;;;;;;;17.67;7.47;;;;;-0.90;97020.00;;;;8258949;28;20218;-66
2024/01/09 13:17:56;;;;;;;14.27;7.13;;;;;-0.90;97021.00;;;;8262763;28;20302;-66
2024/01/09 13:22:01;;;;;;;22.50;7.57;;;;;-0.90;97012.00;;;;8262396;28;20209;-66
2024/01/09 13:26:07;;;;;;;21.83;8.77;;;;;-0.80;97012.00;;;;8262767;28;20211;-66
2024/01/09 13:30:11;;;;;;;12.53;6.30;;;;;-0.80;97014.00;;;;8258792;28;20230;-65
2024/01/09 13:34:18;;;;;;;14.70;6.90;;;;;-0.80;97020.00;;;;8257761;28;20209;-66
2024/01/09 13:38:23;;;;;;;14.00;5.83;;;;;-0.80;97019.00;;;;8260062;28;20207;-67
2024/01/09 13:42:26;;;;;;;17.17;6.80;;;;;-0.80;97015.00;;;;8260738;28;20241;-66
2024/01/09 13:46:30;;;;;;;17.30;7.07;;;;;-0.80;97011.00;;;;8257094;28;20325;-66
2024/01/09 13:50:33;;;;;;;20.57;6.97;;;;;-0.90;97019.00;;;;8257131;28;20218;-66
2024/01/09 13:54:40;;;;;;;13.83;6.07;;;;;-0.90;97018.00;;;;8258804;28;20216;-67
2024/01/09 13:58:43;;;;;;;18.70;8.17;;;;;-0.90;97018.00;;;;8253221;28;20293;-66
2024/01/09 14:02:47;;;;;;;15.00;6.50;;;;;-1.00;97019.00;;;;8258783;28;20226;-66
2024/01/09 14:06:51;;;;;;;14.60;6.30;;;;;-1.00;97014.00;;;;8255923;28;20210;-66
2024/01/09 14:10:55;;;;;;;20.13;8.07;;;;;-1.00;97016.00;;;;8257270;28;20288;-67
2024/01/09 14:14:58;;;;;;;11.60;5.53;;;;;-1.00;97007.00;;;;8255532;28;20194;-66
2024/01/09 14:19:02;;;;;;;16.33;6.30;;;;;-1.00;97012.00;;;;8261516;28;20234;-67
2024/01/09 14:23:06;;;;;;;25.07;7.50;;;;;-1.10;97002.00;;;;8259924;28;20207;-67
2024/01/09 14:27:11;;;;;;;14.30;6.80;;;;;-1.00;97009.00;;;;8258475;28;20214;-67
2024/01/09 14:31:14;;;;;;;17.97;6.57;;;;;-1.10;97017.00;;;;8258645;28;20312;-67
2024/01/09 14:35:17;;;;;;;15.50;6.43;;;;;-1.10;97017.00;;;;8258998;28;20981;-67
2024/01/09 14:39:21;;;;;;;12.30;5.90;;;;;-1.20;97014.00;;;;8258843;28;20229;-67
2024/01/09 14:43:25;;;;;;;17.67;8.83;;;;;-1.20;97024.00;;;;8261298;28;20204;-67
2024/01/09 14:47:29;;;;;;;15.40;7.50;;;;;-1.30;97025.00;;;;8261907;28;20207;-68
2024/01/09 14:51:35;;;;;;;23.57;8.97;;;;;-1.40;97017.00;;;;8260014;28;20224;-68
2024/01/09 14:55:38;;;;;;;18.37;8.20;;;;;-1.50;97021.00;;;;8259246;28;20211;-68
2024/01/09 14:59:45;;;;;;;20.97;8.70;;;;;-1.60;97034.00;;;;8259005;28;22251;-68
2024/01/09 15:03:48;;;;;;;17.93;7.73;;;;;-1.60;97038.00;;;;8257911;28;20508;-68
2024/01/09 15:07:52;;;;;;;19.20;8.47;;;;;-1.70;97033.00;;;;8257275;28;20711;-68
2024/01/09 15:11:55;;;;;;;20.93;8.47;;;;;-1.80;97030.00;;;;8266456;28;20284;-68
2024/01/09 15:16:00;;;;;;;20.87;8.70;;;;;-1.80;97028.00;;;;8266100;28;20206;-68
2024/01/09 15:20:05;;;;;;;18.77;7.00;;;;;-1.90;97027.00;;;;8265711;28;20208;-68
2024/01/09 15:24:09;;;;;;;20.23;7.67;;;;;-2.00;97028.00;;;;8265176;28;20238;-68
2024/01/09 15:28:12;;;;;;;18.40;8.03;;;;;-2.10;97029.00;;;;8264587;28;20269;-68
2024/01/09 15:32:17;;;;;;;24.03;10.17;;;;;-2.20;97034.00;;;;8262459;28;20321;-68
2024/01/09 15:36:20;;;;;;;13.03;6.43;;;;;-2.20;97039.00;;;;8261239;28;20206;-68
2024/01/09 15:40:23;;;;;;;26.77;11.20;;;;;-2.40;97040.00;;;;8259665;28;20235;-68
2024/01/09 15:44:26;;;;;;;25.40;10.60;;;;;-2.40;97040.00;;;;8257947;28;20758;-68
2024/01/09 15:48:31;;;;;;;28.00;11.00;;;;;-2.50;97047.00;;;;8258650;28;20316;-68
2024/01/09 15:52:34;;;;;;;27.80;9.77;;;;;-2.60;97045.00;;;;8263601;28;20268;-68
2024/01/09 15:56:37;;;;;;;22.27;7.90;;;;;-2.60;97045.00;;;;8262821;28;21209;-68
2024/01/09 16:00:41;;;;;;;26.47;10.70;;;;;-2.70;97053.00;;;;8259235;28;20353;-68
2024/01/09 16:04:45;;;;;;;27.63;11.00;;;;;-2.80;97054.00;;;;8262419;28;20233;-68
2024/01/09 16:08:49;;;;;;;19.07;8.20;;;;;-2.90;97049.00;;;;8263022;28;20773;-68
2024/01/09 16:12:55;;;;;;;27.67;11.03;;;;;-2.90;97042.00;;;;8260758;28;20221;-67
2024/01/09 16:16:59;;;;;;;25.07;10.03;;;;;-3.00;97046.00;;;;8265651;28;21107;-67
2024/01/09 16:21:05;;;;;;;18.47;10.10;;;;;-3.10;97043.00;;;;8266212;28;20217;-68
2024/01/09 16:25:09;;;;;;;24.10;11.37;;;;;-3.20;97046.00;;;;8267535;28;20209;-68
2024/01/09 16:29:12;;;;;;;26.80;9.27;;;;;-3.20;97044.00;;;;8266109;28;20218;-68
2024/01/09 16:33:15;;;;;;;21.37;9.87;;;;;-3.30;97051.00;;;;8266480;28;20702;-68
2024/01/09 16:37:19;;;;;;;17.40;7.47;;;;;-3.30;97047.00;;;;8268007;28;20207;-68
2024/01/09 16:41:22;;;;;;;25.63;9.27;;;;;-3.30;97053.00;;;;8266025;28;20206;-68
2024/01/09 16:45:26;;;;;;;22.97;10.13;;;;;-3.40;97058.00;;;;8264679;28;20229;-69
2024/01/09 16:49:29;;;;;;;22.03;10.10;;;;;-3.50;97061.00;;;;8264687;28;20289;-68
2024/01/09 16:53:34;;;;;;;21.20;8.73;;;;;-3.50;97068.00;;;;8267381;28;20292;-68
2024/01/09 16:57:37;;;;;;;20.60;9.20;;;;;-3.50;97068.00;;;;8266242;28;20313;-68
2024/01/09 17:01:40;;;;;;;28.30;10.80;;;;;-3.50;97066.00;;;;8264999;28;20832;-68
2024/01/09 17:05:43;;;;;;;25.70;9.77;;;;;-3.60;97067.00;;;;8263246;28;20202;-69
2024/01/09 17:09:48;;;;;;;23.83;9.80;;;;;-3.70;97072.00;;;;8267464;28;20201;-69
2024/01/09 17:13:52;;;;;;;20.20;8.53;;;;;-3.80;97076.00;;;;8263675;28;20820;-69
2024/01/09 17:17:56;;;;;;;17.93;8.23;;;;;-3.80;97068.00;;;;8266801;28;20206;-69
2024/01/09 17:22:00;;;;;;;21.80;9.40;;;;;-3.90;97067.00;;;;8263507;28;20198;-68
2024/01/09 17:26:05;;;;;;;27.50;10.43;;;;;-4.00;97060.00;;;;8266072;28;20209;-68
2024/01/09 17:30:10;;;;;;;20.77;8.07;;;;;-4.00;97070.00;;;;8264407;28;20316;-69
2024/01/09 17:34:14;;;;;;;22.13;9.40;;;;;-4.10;97075.00;;;;8264813;28;21007;-68
2024/01/09 17:38:17;;;;;;;27.70;10.07;;;;;-4.20;97073.00;;;;8262551;28;20198;-68
2024/01/09 17:42:22;;;;;;;25.77;10.53;;;;;-4.20;97067.00;;;;8265257;28;20618;-68
2024/01/09 17:46:25;;;;;;;18.33;7.23;;;;;-4.30;97076.00;;;;8266633;28;20226;-68
2024/01/09 17:50:28;;;;;;;23.00;9.80;;;;;-4.30;97064.00;;;;8263900;28;20304;-68
2024/01/09 17:54:31;;;;;;;21.10;8.70;;;;;-4.40;97069.00;;;;8265905;28;20198;-68
2024/01/09 17:58:37;;;;;;;19.47;8.27;;;;;-4.50;97071.00;;;;8264719;28;20293;-68
2024/01/09 18:02:40;;;;;;;12.43;6.33;;;;;-4.50;97070.00;;;;8262998;28;20240;-68
2024/01/09 18:06:46;;;;;;;22.23;9.90;;;;;-4.50;97066.00;;;;8264075;28;20202;-68
2024/01/09 18:10:50;;;;;;;26.43;11.00;;;;;-4.60;97067.00;;;;8264157;28;20269;-69
2024/01/09 18:14:54;;;;;;;22.00;8.87;;;;;-4.60;97065.00;;;;8264863;28;20269;-68
2024/01/09 18:18:58;;;;;;;23.13;8.37;;;;;-4.70;97062.00;;;;8260707;28;20202;-68
2024/01/09 18:23:04;;;;;;;22.30;8.77;;;;;-4.60;97055.00;;;;8262132;28;20317;-69
2024/01/09 18:27:07;;;;;;;26.33;10.27;;;;;-4.60;97059.00;;;;8261599;28;20214;-69
2024/01/09 18:31:12;;;;;;;19.43;8.10;;;;;-4.60;97061.00;;;;8262176;28;20284;-69
2024/01/09 18:35:15;;;;;;;26.10;8.77;;;;;-4.70;97067.00;;;;8263052;28;20722;-68
2024/01/09 18:39:20;;;;;;;25.17;8.90;;;;;-4.70;97057.00;;;;8261330;28;20256;-68
2024/01/09 18:43:24;;;;;;;23.37;9.23;;;;;-4.80;97057.00;;;;8263770;28;20951;-68
2024/01/09 18:47:29;;;;;;;21.97;8.43;;;;;-4.80;97057.00;;;;8270076;28;20208;-68
2024/01/09 18:51:32;;;;;;;26.33;10.10;;;;;-4.90;97054.00;;;;8261481;28;20464;-68
2024/01/09 18:55:35;;;;;;;26.77;9.00;;;;;-4.90;97055.00;;;;8264827;28;20293;-66
2024/01/09 18:59:39;;;;;;;26.17;8.93;;;;;-4.90;97049.00;;;;8268806;28;20206;-66
2024/01/09 19:03:43;;;;;;;22.37;6.97;;;;;-4.90;97047.00;;;;8266774;28;20240;-67
2024/01/09 19:07:46;;;;;;;18.27;8.43;;;;;-4.90;97041.00;;;;8270671;28;20644;-68
2024/01/09 19:11:50;;;;;;;20.87;8.03;;;;;-4.90;97034.00;;;;8270098;28;20228;-66
2024/01/09 19:15:53;;;;;;;17.77;7.43;;;;;-4.90;97039.00;;;;8271558;28;20289;-67
2024/01/09 19:19:57;;;;;;;19.33;7.83;;;;;-4.80;97044.00;;;;8269145;28;20216;-67
2024/01/09 19:24:00;;;;;;;11.43;5.60;;;;;-4.80;97040.00;;;;8265007;28;20224;-67
2024/01/09 19:28:04;;;;;;;19.67;8.87;;;;;-4.80;97042.00;;;;8266858;28;20206;-67
2024/01/09 19:32:07;;;;;;;18.37;7.97;;;;;-4.80;97044.00;;;;8266212;28;20718;-67
2024/01/09 19:36:14;;;;;;;23.47;9.03;;;;;-4.80;97049.00;;;;8269864;28;20202;-67
2024/01/09 19:40:18;;;;;;;36.70;12.87;;;;;-4.80;97035.00;;;;8264044;28;20229;-67
2024/01/09 19:44:21;;;;;;;25.97;10.17;;;;;-4.80;97043.00;;;;8264710;28;20356;-67
2024/01/09 19:48:24;;;;;;;24.43;8.70;;;;;-4.80;97042.00;;;;8267137;28;20230;-65
2024/01/09 19:52:30;;;;;;;33.73;12.73;;;;;-4.80;97046.00;;;;8267370;28;20249;-67
2024/01/09 19:56:33;;;;;;;24.33;9.77;;;;;-4.90;97047.00;;;;8265390;28;20213;-67
2024/01/09 20:00:36;;;;;;;29.70;11.27;;;;;-4.90;97055.00;;;;8265958;28;20273;-67
2024/01/09 20:04:40;;;;;;;24.73;12.07;;;;;-4.90;97050.00;;;;8265052;28;20232;-67